createdAt,value
2023-01-07T00:01:35.164Z,101376.31
2023-01-07T00:04:01.673Z,101375.56
2023-01-07T00:06:33.114Z,101369.81
2023-01-07T00:08:59.448Z,101374.06
2023-01-07T00:11:26.639Z,101366.81
2023-01-07T00:13:53.215Z,101361.06
2023-01-07T00:16:20.390Z,101360.34
2023-01-07T00:18:50.469Z,101362.47
2023-01-07T00:21:17.102Z,101375.34
2023-01-07T00:23:43.764Z,101363.09
2023-01-07T00:26:10.770Z,101356.59
2023-01-07T00:28:37.792Z,101355.84
2023-01-07T00:31:05.113Z,101355.75
2023-01-07T00:33:31.476Z,101370.88
2023-01-07T00:36:01.780Z,101373.75
2023-01-07T00:38:28.158Z,101363.59
2023-01-07T00:40:54.486Z,101352.09
2023-01-07T00:43:20.846Z,101344.88
2023-01-07T00:45:47.166Z,101344.13
2023-01-07T00:48:13.491Z,101354.84
2023-01-07T00:50:42.731Z,101354.84
2023-01-07T00:53:09.476Z,101354.75
2023-01-07T00:55:35.805Z,101357.63
2023-01-07T00:58:02.198Z,101367.75
2023-01-07T01:00:28.582Z,101363.38
2023-01-07T01:02:59.435Z,101356.88
2023-01-07T01:05:25.792Z,101367.66
2023-01-07T01:07:52.775Z,101362.63
2023-01-07T01:10:19.292Z,101356.13
2023-01-07T01:12:49.740Z,101361.88
2023-01-07T01:15:16.370Z,101364.66
2023-01-07T01:17:42.719Z,101364.66
2023-01-07T01:20:11.019Z,101354.53
2023-01-07T01:22:37.479Z,101363.91
2023-01-07T01:25:07.112Z,101366.03
2023-01-07T01:27:33.479Z,101368.16
2023-01-07T01:29:59.828Z,101370.41
2023-01-07T01:32:27.281Z,101354.53
2023-01-07T01:34:54.226Z,101356.66
2023-01-07T01:37:20.765Z,101368.16
2023-01-07T01:39:48.010Z,101368.16
2023-01-07T01:42:15.210Z,101363.06
2023-01-07T01:44:53.924Z,101364.41
2023-01-07T01:47:47.046Z,101356.44
2023-01-07T01:50:24.869Z,101358.03
2023-01-07T01:53:01.535Z,101355.91
2023-01-07T01:55:30.712Z,101352.91
2023-01-07T01:57:59.373Z,101346.44
2023-01-07T02:00:25.771Z,101345.69
2023-01-07T02:02:54.467Z,101343.56
2023-01-07T02:05:20.879Z,101344.19
2023-01-07T02:07:47.230Z,101342.69
2023-01-07T02:10:15.437Z,101348.44
2023-01-07T02:12:57.083Z,101346.97
2023-01-07T02:15:32.308Z,101344.09
2023-01-07T02:18:05.036Z,101343.97
2023-01-07T02:20:31.312Z,101339.72
2023-01-07T02:23:03.428Z,101339.72
2023-01-07T02:25:42.095Z,101335.25
2023-01-07T02:28:27.047Z,101325.22
2023-01-07T02:30:53.317Z,101331.72
2023-01-07T02:33:39.207Z,101324.47
2023-01-07T02:36:08.173Z,101325.88
2023-01-07T02:38:37.654Z,101323.63
2023-01-07T02:41:14.147Z,101321.50
2023-01-07T02:43:44.447Z,101325.09
2023-01-07T02:46:18.155Z,101322.13
2023-01-07T02:48:44.481Z,101314.25
2023-01-07T02:51:10.833Z,101316.38
2023-01-07T02:53:37.355Z,101311.38
2023-01-07T02:56:06.824Z,101302.00
2023-01-07T02:58:44.655Z,101312.00
2023-01-07T03:05:29.310Z,101310.53
2023-01-07T03:08:02.227Z,101316.28
2023-01-07T03:10:38.047Z,101309.03
2023-01-07T03:13:05.279Z,101313.28
2023-01-07T03:15:34.517Z,101314.03
2023-01-07T03:18:00.787Z,101313.28
2023-01-07T03:20:27.097Z,101312.53
2023-01-07T03:22:53.824Z,101313.28
2023-01-07T03:25:20.672Z,101314.66
2023-01-07T03:27:47.019Z,101317.53
2023-01-07T03:30:13.894Z,101324.66
2023-01-07T03:32:49.161Z,101321.78
2023-01-07T03:35:15.495Z,101321.78
2023-01-07T03:37:42.361Z,101321.78
2023-01-07T03:40:10.627Z,101323.28
2023-01-07T03:42:41.986Z,101310.41
2023-01-07T03:45:14.305Z,101296.16
2023-01-07T03:47:41.551Z,101289.00
2023-01-07T03:50:08.082Z,101278.38
2023-01-07T03:52:38.865Z,101297.22
2023-01-07T03:55:05.451Z,101280.72
2023-01-07T03:57:32.395Z,101282.22
2023-01-07T04:00:01.088Z,101279.34
2023-01-07T04:02:30.019Z,101275.72
2023-01-07T04:04:56.993Z,101272.84
2023-01-07T04:07:23.493Z,101269.22
2023-01-07T04:09:50.780Z,101269.22
2023-01-07T04:12:17.356Z,101258.47
2023-01-07T04:14:44.550Z,101262.19
2023-01-07T04:17:11.611Z,101267.94
2023-01-07T04:19:38.665Z,101262.19
2023-01-07T04:22:05.963Z,101252.94
2023-01-07T04:24:33.144Z,101262.44
2023-01-07T04:26:59.569Z,101261.03
2023-01-07T04:29:26.035Z,101252.41
2023-01-07T04:31:52.465Z,101258.16
2023-01-07T04:34:19.236Z,101262.44
2023-01-07T04:36:45.566Z,101268.19
2023-01-07T04:39:12.502Z,101256.69
2023-01-07T04:41:38.939Z,101256.69
2023-01-07T04:44:05.600Z,101252.28
2023-01-07T04:46:33.331Z,101247.31
2023-01-07T04:48:59.734Z,101250.94
2023-01-07T04:51:26.107Z,101252.41
2023-01-07T04:53:52.603Z,101252.41
2023-01-07T04:56:18.965Z,101253.91
2023-01-07T04:58:46.613Z,101243.16
2023-01-07T05:01:13.458Z,101245.41
2023-01-07T05:03:40.089Z,101243.25
2023-01-07T05:06:09.250Z,101254.03
2023-01-07T05:08:37.315Z,101251.16
2023-01-07T05:11:04.945Z,101245.41
2023-01-07T05:13:32.139Z,101242.53
2023-01-07T05:16:00.265Z,101242.53
2023-01-07T05:18:26.829Z,101237.41
2023-01-07T05:20:53.187Z,101238.13
2023-01-07T05:23:19.665Z,101233.91
2023-01-07T05:25:47.574Z,101235.38
2023-01-07T05:28:13.928Z,101236.84
2023-01-07T05:30:41.209Z,101238.38
2023-01-07T05:33:07.747Z,101239.09
2023-01-07T05:35:38.331Z,101236.34
2023-01-07T05:38:05.623Z,101239.09
2023-01-07T05:40:32.404Z,101238.47
2023-01-07T05:42:58.768Z,101234.84
2023-01-07T05:45:27.258Z,101231.22
2023-01-07T05:47:53.574Z,101224.72
2023-01-07T05:50:19.892Z,101228.34
2023-01-07T05:52:46.287Z,101224.00
2023-01-07T05:55:15.290Z,101232.63
2023-01-07T05:57:41.626Z,101228.34
2023-01-07T06:00:10.254Z,101234.84
2023-01-07T06:02:39.307Z,101234.84
2023-01-07T06:05:05.841Z,101231.31
2023-01-07T06:07:32.220Z,101230.59
2023-01-07T06:09:58.579Z,101235.72
2023-01-07T06:12:24.956Z,101226.34
2023-01-07T06:14:51.298Z,101239.31
2023-01-07T06:17:17.644Z,101222.06
2023-01-07T06:19:43.976Z,101232.84
2023-01-07T06:22:10.297Z,101235.72
2023-01-07T06:24:36.652Z,101234.97
2023-01-07T06:27:02.975Z,101231.31
2023-01-07T06:29:32.288Z,101232.19
2023-01-07T06:31:58.617Z,101227.81
2023-01-07T06:34:24.992Z,101229.28
2023-01-07T06:36:51.366Z,101221.44
2023-01-07T06:39:17.686Z,101230.66
2023-01-07T06:41:44.015Z,101216.47
2023-01-07T06:44:10.339Z,101221.63
2023-01-07T06:46:36.711Z,101219.88
2023-01-07T06:49:03.183Z,101228.84
2023-01-07T06:51:29.512Z,101235.44
2023-01-07T06:54:07.730Z,101239.06
2023-01-07T06:56:34.055Z,101238.97
2023-01-07T06:59:00.405Z,101236.31
2023-01-07T07:01:26.857Z,101236.44
2023-01-07T07:03:53.213Z,101233.69
2023-01-07T07:06:19.539Z,101247.94
2023-01-07T07:08:45.866Z,101240.91
2023-01-07T07:11:12.230Z,101243.88
2023-01-07T07:13:38.554Z,101229.63
2023-01-07T07:16:04.977Z,101238.25
2023-01-07T07:18:31.332Z,101240.50
2023-01-07T07:20:58.661Z,101246.25
2023-01-07T07:23:25.022Z,101245.59
2023-01-07T07:25:51.341Z,101253.47
2023-01-07T07:28:17.662Z,101248.47
2023-01-07T07:30:47.204Z,101250.69
2023-01-07T07:33:14.985Z,101259.66
2023-01-07T07:35:41.415Z,101255.13
2023-01-07T07:38:07.778Z,101253.03
2023-01-07T07:40:34.104Z,101255.41
2023-01-07T07:43:10.752Z,101255.63
2023-01-07T07:45:38.939Z,101260.31
2023-01-07T07:48:05.765Z,101254.34
2023-01-07T07:50:32.114Z,101257.88
2023-01-07T07:52:58.455Z,101262.84
2023-01-07T07:55:26.276Z,101260.75
2023-01-07T07:57:53.754Z,101259.97
2023-01-07T08:00:20.075Z,101257.09
2023-01-07T08:02:46.416Z,101253.47
2023-01-07T08:05:12.794Z,101261.38
2023-01-07T08:07:39.343Z,101259.97
2023-01-07T08:10:05.935Z,101254.88
2023-01-07T08:12:32.278Z,101248.34
2023-01-07T08:14:58.615Z,101248.34
2023-01-07T08:17:25.018Z,101249.88
2023-01-07T08:19:51.367Z,101252.00
2023-01-07T08:22:17.701Z,101248.34
2023-01-07T08:24:44.044Z,101239.09
2023-01-07T08:27:10.378Z,101244.13
2023-01-07T08:29:36.727Z,101242.72
2023-01-07T08:32:03.074Z,101239.84
2023-01-07T08:34:29.407Z,101237.06
2023-01-07T08:36:55.724Z,101244.34
2023-01-07T08:39:22.064Z,101245.06
2023-01-07T08:41:48.389Z,101244.34
2023-01-07T08:44:14.762Z,101238.59
2023-01-07T08:46:42.757Z,101245.06
2023-01-07T08:49:09.813Z,101244.34
2023-01-07T08:51:36.320Z,101245.81
2023-01-07T08:54:02.660Z,101250.09
2023-01-07T08:56:29.046Z,101244.34
2023-01-07T08:58:55.383Z,101240.72
2023-01-07T09:01:21.835Z,101244.34
2023-01-07T09:03:48.219Z,101245.81
2023-01-07T09:06:14.544Z,101241.56
2023-01-07T09:08:41.021Z,101235.06
2023-01-07T09:11:07.357Z,101233.78
2023-01-07T09:13:33.678Z,101227.31
2023-01-07T09:16:00.250Z,101224.50
2023-01-07T09:18:26.627Z,101237.41
2023-01-07T09:20:52.949Z,101231.66
2023-01-07T09:23:19.331Z,101229.53
2023-01-07T09:25:45.659Z,101220.78
2023-01-07T09:28:12.013Z,101218.75
2023-01-07T09:30:38.393Z,101222.28
2023-01-07T09:33:04.727Z,101227.31
2023-01-07T09:35:31.055Z,101221.56
2023-01-07T09:37:57.405Z,101226.66
2023-01-07T09:40:31.175Z,101224.50
2023-01-07T09:42:58.875Z,101226.00
2023-01-07T09:45:26.461Z,101222.50
2023-01-07T09:47:59.679Z,101230.47
2023-01-07T09:50:26.017Z,101218.97
2023-01-07T09:52:53.565Z,101224.72
2023-01-07T09:55:24.469Z,101218.97
2023-01-07T09:57:50.811Z,101224.72
2023-01-07T10:00:18.022Z,101210.34
2023-01-07T10:02:53.519Z,101210.34
2023-01-07T10:05:38.346Z,101218.97
2023-01-07T10:08:29.788Z,101207.47
2023-01-07T10:11:00.841Z,101207.47
2023-01-07T10:13:45.666Z,101195.97
2023-01-07T10:16:18.090Z,101203.22
2023-01-07T10:18:53.658Z,101198.22
2023-01-07T10:21:46.134Z,101194.72
2023-01-07T10:24:28.602Z,101186.09
2023-01-07T10:26:59.257Z,101185.41
2023-01-07T10:29:28.484Z,101178.94
2023-01-07T10:31:55.012Z,101179.66
2023-01-07T10:34:25.123Z,101173.19
2023-01-07T10:37:07.294Z,101171.69
2023-01-07T10:39:38.598Z,101173.19
2023-01-07T10:42:06.605Z,101172.44
2023-01-07T10:44:51.916Z,101163.81
2023-01-07T10:47:25.638Z,101167.41
2023-01-07T10:50:10.659Z,101165.94
2023-01-07T10:52:45.208Z,101160.94
2023-01-07T10:55:29.607Z,101154.44
2023-01-07T10:57:55.999Z,101151.47
2023-01-07T11:00:22.331Z,101148.69
2023-01-07T11:02:50.925Z,101147.19
2023-01-07T11:05:24.074Z,101142.84
2023-01-07T11:07:51.220Z,101135.69
2023-01-07T11:10:24.361Z,101127.69
2023-01-07T11:12:52.323Z,101134.19
2023-01-07T11:15:20.421Z,101128.44
2023-01-07T11:17:48.982Z,101130.56
2023-01-07T11:20:19.524Z,101131.97
2023-01-07T11:22:45.855Z,101124.06
2023-01-07T11:25:22.254Z,101113.97
2023-01-07T11:27:48.623Z,101117.56
2023-01-07T11:30:21.838Z,101121.19
2023-01-07T11:32:54.183Z,101108.22
2023-01-07T11:35:22.727Z,101118.31
2023-01-07T11:37:49.427Z,101108.22
2023-01-07T11:40:15.696Z,101109.69
2023-01-07T11:42:48.820Z,101096.81
2023-01-07T11:45:21.302Z,101101.16
2023-01-07T11:47:48.758Z,101098.28
2023-01-07T11:50:21.748Z,101108.41
2023-01-07T11:53:00.753Z,101098.41
2023-01-07T11:55:27.096Z,101097.66
2023-01-07T11:57:56.816Z,101095.53
2023-01-07T12:00:31.489Z,101092.66
2023-01-07T12:03:01.858Z,101084.13
2023-01-07T12:05:28.235Z,101084.13
2023-01-07T12:07:54.570Z,101082.63
2023-01-07T12:10:24.547Z,101074.00
2023-01-07T12:12:50.905Z,101081.88
2023-01-07T12:15:20.870Z,101081.88
2023-01-07T12:17:47.560Z,101069.63
2023-01-07T12:20:25.901Z,101073.91
2023-01-07T12:23:10.963Z,101071.03
2023-01-07T12:25:37.232Z,101075.28
2023-01-07T12:28:09.773Z,101062.41
2023-01-07T12:30:55.042Z,101056.66
2023-01-07T12:33:30.614Z,101058.13
2023-01-07T12:36:01.307Z,101055.38
2023-01-07T12:38:32.565Z,101056.09
2023-01-07T12:41:00.288Z,101046.84
2023-01-07T12:43:33.666Z,101041.81
2023-01-07T12:46:00.875Z,101045.53
2023-01-07T12:48:29.068Z,101045.53
2023-01-07T12:50:55.649Z,101038.50
2023-01-07T12:53:27.931Z,101037.13
2023-01-07T12:55:58.479Z,101041.47
2023-01-07T12:58:44.644Z,101029.84
2023-01-07T13:01:19.490Z,101029.97
2023-01-07T13:03:59.436Z,101025.72
2023-01-07T13:06:42.652Z,101019.94
2023-01-07T13:09:12.416Z,101025.72
2023-01-07T13:12:01.437Z,101008.44
2023-01-07T13:14:29.287Z,101009.81
2023-01-07T13:16:59.106Z,101005.66
2023-01-07T13:19:25.502Z,101007.88
2023-01-07T13:21:51.837Z,101010.03
2023-01-07T13:24:55.226Z,101001.41
2023-01-07T13:27:20.733Z,100998.41
2023-01-07T13:30:10.819Z,100996.94
2023-01-07T13:32:40.002Z,100991.19
2023-01-07T13:35:25.151Z,100990.44
2023-01-07T13:37:55.519Z,100996.22
2023-01-07T13:40:23.895Z,100993.03
2023-01-07T13:42:59.328Z,100999.72
2023-01-07T13:45:26.437Z,100986.72
2023-01-07T13:47:56.869Z,100982.47
2023-01-07T13:50:35.686Z,100986.63
2023-01-07T13:53:03.176Z,100979.47
2023-01-07T13:55:31.067Z,100975.13
2023-01-07T13:57:57.396Z,100973.94
2023-01-07T14:00:42.940Z,100966.09
2023-01-07T14:03:28.493Z,100965.47
2023-01-07T14:06:13.707Z,100967.38
2023-01-07T14:08:40.082Z,100960.94
2023-01-07T14:11:06.441Z,100962.13
2023-01-07T14:13:33.756Z,100962.34
2023-01-07T14:16:05.200Z,100961.91
2023-01-07T14:18:44.605Z,100962.75
2023-01-07T14:21:15.433Z,100963.22
2023-01-07T14:24:05.089Z,100957.59
2023-01-07T14:26:36.761Z,100950.53
2023-01-07T14:29:15.119Z,100952.78
2023-01-07T14:31:41.465Z,100951.38
2023-01-07T14:34:08.587Z,100950.44
2023-01-07T14:36:53.869Z,100949.06
2023-01-07T14:39:29.578Z,100943.22
2023-01-07T14:42:14.648Z,100944.69
2023-01-07T14:44:40.985Z,100935.97
2023-01-07T14:47:10.612Z,100940.22
2023-01-07T14:49:43.135Z,100938.75
2023-01-07T14:52:16.255Z,100935.78
2023-01-07T14:55:05.284Z,100950.25
2023-01-07T14:57:41.162Z,100939.50
2023-01-07T15:00:32.557Z,100934.28
2023-01-07T15:03:37.452Z,100949.50
2023-01-07T15:06:06.637Z,100942.28
2023-01-07T15:09:02.635Z,100939.28
2023-01-07T15:11:47.764Z,100934.06
2023-01-07T15:14:43.351Z,100930.03
2023-01-07T15:17:11.297Z,100941.91
2023-01-07T15:19:48.723Z,100936.38
2023-01-07T15:22:38.778Z,100933.59
2023-01-07T15:25:20.163Z,100933.59
2023-01-07T15:27:49.496Z,100939.66
2023-01-07T15:30:15.755Z,100929.53
2023-01-07T15:32:42.023Z,100933.78
2023-01-07T15:35:24.042Z,100932.28
2023-01-07T15:37:53.429Z,100938.03
2023-01-07T15:40:20.412Z,100944.56
2023-01-07T15:42:47.094Z,100933.69
2023-01-07T15:45:17.394Z,100939.44
2023-01-07T15:47:43.756Z,100936.50
2023-01-07T15:50:23.687Z,100940.63
2023-01-07T15:52:50.493Z,100940.03
2023-01-07T15:55:33.008Z,100933.28
2023-01-07T15:58:06.111Z,100927.75
2023-01-07T16:00:33.012Z,100941.75
2023-01-07T16:02:59.365Z,100939.91
2023-01-07T16:05:26.355Z,100930.63
2023-01-07T16:07:56.695Z,100925.41
2023-01-07T16:10:22.948Z,100931.63
2023-01-07T16:13:21.461Z,100920.78
2023-01-07T16:15:52.801Z,100914.69
2023-01-07T16:18:19.194Z,100909.97
2023-01-07T16:20:50.309Z,100911.19
2023-01-07T16:23:18.192Z,100916.50
2023-01-07T16:25:51.924Z,100910.84
2023-01-07T16:28:22.051Z,100911.69
2023-01-07T16:30:48.771Z,100911.69
2023-01-07T16:33:16.086Z,100903.91
2023-01-07T16:35:42.421Z,100898.16
2023-01-07T16:38:08.781Z,100896.22
2023-01-07T16:40:38.081Z,100900.56
2023-01-07T16:43:04.722Z,100892.69
2023-01-07T16:45:32.439Z,100884.81
2023-01-07T16:48:02.633Z,100897.78
2023-01-07T16:50:30.288Z,100881.31
2023-01-07T16:52:56.714Z,100887.06
2023-01-07T16:55:42.915Z,100882.78
2023-01-07T16:58:15.870Z,100874.88
2023-01-07T17:00:47.862Z,100876.09
2023-01-07T17:03:14.203Z,100879.06
2023-01-07T17:05:40.521Z,100868.84
2023-01-07T17:08:07.746Z,100871.28
2023-01-07T17:10:34.997Z,100861.91
2023-01-07T17:13:27.654Z,100859.78
2023-01-07T17:16:13.870Z,100853.28
2023-01-07T17:18:40.254Z,100854.03
2023-01-07T17:21:13.348Z,100839.53
2023-01-07T17:23:40.838Z,100842.53
2023-01-07T17:26:15.850Z,100833.25
2023-01-07T17:28:49.601Z,100834.81
2023-01-07T17:31:15.976Z,100843.66
2023-01-07T17:34:13.772Z,100833.97
2023-01-07T17:36:40.089Z,100831.19
2023-01-07T17:39:06.491Z,100839.34
2023-01-07T17:41:52.387Z,100842.91
2023-01-07T17:44:18.704Z,100834.91
2023-01-07T17:46:45.061Z,100833.41
2023-01-07T17:49:11.518Z,100836.38
2023-01-07T17:51:38.595Z,100828.41
2023-01-07T17:54:06.652Z,100831.19
2023-01-07T17:56:33.236Z,100831.00
2023-01-07T17:58:59.559Z,100829.53
2023-01-07T18:01:26.033Z,100828.22
2023-01-07T18:03:52.577Z,100819.69
2023-01-07T18:06:19.562Z,100811.81
2023-01-07T18:08:46.314Z,100812.56
2023-01-07T18:11:32.360Z,100817.44
2023-01-07T18:13:58.715Z,100807.94
2023-01-07T18:16:25.134Z,100801.94
2023-01-07T18:18:51.498Z,100795.56
2023-01-07T18:21:17.872Z,100803.53
2023-01-07T18:23:45.877Z,100797.22
2023-01-07T18:26:12.483Z,100789.72
2023-01-07T18:28:41.724Z,100783.59
2023-01-07T18:31:08.062Z,100790.94
2023-01-07T18:33:35.326Z,100775.19
2023-01-07T18:36:01.827Z,100778.78
2023-01-07T18:38:28.250Z,100785.41
2023-01-07T18:40:54.962Z,100779.72
2023-01-07T18:43:21.335Z,100780.47
2023-01-07T18:45:50.435Z,100782.69
2023-01-07T18:48:17.263Z,100772.59
2023-01-07T18:50:47.964Z,100766.28
2023-01-07T18:53:14.498Z,100764.16
2023-01-07T18:55:41.009Z,100761.38
2023-01-07T18:58:07.758Z,100762.75
2023-01-07T19:00:34.221Z,100754.03
2023-01-07T19:03:00.695Z,100751.16
2023-01-07T19:05:27.282Z,100738.19
2023-01-07T19:07:55.323Z,100742.53
2023-01-07T19:10:24.788Z,100738.91
2023-01-07T19:12:51.294Z,100730.28
2023-01-07T19:15:20.749Z,100725.19
2023-01-07T19:17:47.084Z,100728.06
2023-01-07T19:20:15.219Z,100722.31
2023-01-07T19:22:41.690Z,100724.44
2023-01-07T19:25:08.028Z,100729.47
2023-01-07T19:27:49.435Z,100720.84
2023-01-07T19:30:15.754Z,100716.56
2023-01-07T19:32:42.130Z,100707.94
2023-01-07T19:35:08.490Z,100707.19
2023-01-07T19:37:38.099Z,100706.56
2023-01-07T19:40:05.010Z,100710.91
2023-01-07T19:42:31.807Z,100713.78
2023-01-07T19:44:58.150Z,100706.66
2023-01-07T19:47:27.623Z,100700.16
2023-01-07T19:49:53.951Z,100700.91
2023-01-07T19:52:20.337Z,100709.53
2023-01-07T19:54:46.753Z,100702.28
2023-01-07T19:57:13.107Z,100695.78
2023-01-07T19:59:39.436Z,100695.78
2023-01-07T20:02:05.915Z,100700.81
2023-01-07T20:04:32.369Z,100700.81
2023-01-07T20:07:01.700Z,100696.53
2023-01-07T20:09:28.028Z,100688.00
2023-01-07T20:11:54.340Z,100682.25
2023-01-07T20:14:20.679Z,100683.75
2023-01-07T20:16:47.123Z,100682.34
2023-01-07T20:19:13.646Z,100683.84
2023-01-07T20:21:42.980Z,100683.84
2023-01-07T20:24:09.322Z,100675.94
2023-01-07T20:26:36.515Z,100672.34
2023-01-07T20:29:02.862Z,100667.97
2023-01-07T20:31:29.678Z,100669.47
2023-01-07T20:33:56.117Z,100662.22
2023-01-07T20:36:26.934Z,100649.25
2023-01-07T20:38:53.328Z,100655.72
2023-01-07T20:41:20.503Z,100646.47
2023-01-07T20:43:50.498Z,100646.47
2023-01-07T20:46:16.877Z,100632.16
2023-01-07T20:48:43.364Z,100625.66
2023-01-07T20:51:09.711Z,100632.25
2023-01-07T20:53:42.798Z,100642.34
2023-01-07T20:56:12.513Z,100640.13
2023-01-07T20:58:38.874Z,100634.56
2023-01-07T21:01:09.065Z,100636.78
2023-01-07T21:03:35.633Z,100636.78
2023-01-07T21:06:01.966Z,100631.03
2023-01-07T21:08:28.467Z,100624.63
2023-01-07T21:10:54.797Z,100619.69
2023-01-07T21:13:21.157Z,100618.22
2023-01-07T21:15:47.481Z,100609.50
2023-01-07T21:18:13.812Z,100604.47
2023-01-07T21:20:40.356Z,100602.28
2023-01-07T21:23:06.887Z,100612.28
2023-01-07T21:25:33.214Z,100603.75
2023-01-07T21:27:59.553Z,100599.41
2023-01-07T21:30:28.177Z,100589.28
2023-01-07T21:32:58.016Z,100582.06
2023-01-07T21:35:24.363Z,100579.19
2023-01-07T21:37:54.099Z,100580.66
2023-01-07T21:40:20.611Z,100589.28
2023-01-07T21:42:46.947Z,100588.56
2023-01-07T21:45:19.786Z,100579.19
2023-01-07T21:47:46.129Z,100580.56
2023-01-07T21:50:14.911Z,100573.34
2023-01-07T21:52:41.245Z,100574.72
2023-01-07T21:55:07.952Z,100574.72
2023-01-07T21:57:35.540Z,100573.25
2023-01-07T22:00:01.883Z,100564.63
2023-01-07T22:02:38.452Z,100571.13
2023-01-07T22:05:04.896Z,100566.09
2023-01-07T22:07:31.216Z,100562.50
2023-01-07T22:09:57.547Z,100558.88
2023-01-07T22:12:25.593Z,100559.53
2023-01-07T22:14:51.939Z,100561.69
2023-01-07T22:17:18.778Z,100550.16
2023-01-07T22:19:45.113Z,100552.31
2023-01-07T22:22:11.447Z,100538.66
2023-01-07T22:24:37.842Z,100541.53
2023-01-07T22:27:07.049Z,100539.41
2023-01-07T22:29:33.940Z,100540.13
2023-01-07T22:32:00.369Z,100532.91
2023-01-07T22:34:26.691Z,100527.16
2023-01-07T22:36:54.443Z,100519.19
2023-01-07T22:39:31.355Z,100517.06
2023-01-07T22:41:59.212Z,100513.44
2023-01-07T22:44:55.135Z,100512.72
2023-01-07T22:47:22.298Z,100529.97
2023-01-07T22:49:48.623Z,100518.38
2023-01-07T22:52:14.946Z,100519.09
2023-01-07T22:54:43.980Z,100516.22
2023-01-07T22:57:10.522Z,100524.13
2023-01-07T22:59:39.726Z,100522.66
2023-01-07T23:02:06.191Z,100519.03
2023-01-07T23:04:32.576Z,100516.81
2023-01-07T23:06:59.028Z,100517.56
2023-01-07T23:09:25.371Z,100508.19
2023-01-07T23:11:51.884Z,100511.06
2023-01-07T23:14:18.853Z,100518.19
2023-01-07T23:16:48.066Z,100504.59
2023-01-07T23:19:14.478Z,100511.06
2023-01-07T23:21:44.692Z,100500.94
2023-01-07T23:24:14.321Z,100509.56
2023-01-07T23:26:40.922Z,100508.09
2023-01-07T23:29:07.262Z,100503.09
2023-01-07T23:31:33.862Z,100500.84
2023-01-07T23:34:00.410Z,100499.41
2023-01-07T23:36:26.770Z,100493.66
2023-01-07T23:38:53.169Z,100475.66
2023-01-07T23:41:19.508Z,100482.16
2023-01-07T23:43:45.846Z,100468.41
2023-01-07T23:46:12.236Z,100463.44
2023-01-07T23:48:44.676Z,100461.22
2023-01-07T23:51:14.939Z,100452.56
2023-01-07T23:53:41.275Z,100446.19
2023-01-07T23:56:07.781Z,100451.16
2023-01-07T23:58:34.188Z,100453.41
